Time;durP1;ratioP1;P1;durP2;ratioP2;P2;SDS_P1;SDS_P2;PMS_P1;PMS_P2;Temp;Humidity;BMP_temperature;BMP_pressure;BME280_temperature;BME280_humidity;BME280_pressure;Samples;Min_cycle;Max_cycle;Signal;HPM_P1;HPM_P2
2021/12/26 03:05:39;;;;;;;8.55;7.67;;;;;;;3.19;76.08;101313.84;1789128;78;26484;-53
2021/12/26 03:08:07;;;;;;;8.35;7.45;;;;;;;4.81;68.10;101305.36;1773747;80;21022;-53
2021/12/26 03:10:34;;;;;;;9.43;7.03;;;;;;;5.19;66.07;101300.58;1767016;80;21017;-53
2021/12/26 03:13:05;;;;;;;7.97;7.12;;;;;;;5.36;65.29;101296.81;1764925;79;21064;-54
2021/12/26 03:15:33;;;;;;;7.90;6.03;;;;;;;5.47;64.86;101297.36;1743787;80;20979;-53
2021/12/26 03:18:01;;;;;;;8.38;6.55;;;;;;;5.59;64.49;101301.73;1784167;79;21002;-52
2021/12/26 03:20:32;;;;;;;6.35;5.70;;;;;;;5.71;64.14;101301.81;1729166;82;21118;-52
2021/12/26 03:23:00;;;;;;;6.75;5.47;;;;;;;5.80;63.80;101303.18;1702705;83;20998;-52
2021/12/26 03:25:29;;;;;;;6.28;5.20;;;;;;;5.89;63.48;101308.87;1728205;82;21055;-52
2021/12/26 03:27:55;;;;;;;5.70;5.10;;;;;;;5.99;63.17;101314.10;1730318;81;21523;-52
2021/12/26 03:30:24;;;;;;;5.87;5.25;;;;;;;6.08;62.96;101328.34;1692518;83;21022;-52
2021/12/26 03:32:53;;;;;;;6.25;5.47;;;;;;;6.18;62.67;101332.70;1734220;81;21032;-52
2021/12/26 03:35:21;;;;;;;5.92;5.10;;;;;;;6.27;62.19;101333.17;1732443;82;21086;-52
2021/12/26 03:37:47;;;;;;;5.67;5.08;;;;;;;6.33;61.91;101335.37;1733586;82;21037;-53
2021/12/26 03:40:19;;;;;;;10.95;6.83;;;;;;;6.39;61.50;101335.39;1631939;86;21049;-53
2021/12/26 03:42:45;;;;;;;6.37;5.65;;;;;;;6.42;61.25;101339.30;1644763;86;21612;-53
2021/12/26 03:45:12;;;;;;;5.85;4.97;;;;;;;6.47;61.23;101344.50;1613461;87;21556;-53
2021/12/26 03:47:39;;;;;;;5.40;4.90;;;;;;;6.52;60.91;101337.61;1619896;87;21649;-52
2021/12/26 03:50:09;;;;;;;6.75;5.12;;;;;;;6.56;60.66;101345.39;1632351;87;21544;-52
2021/12/26 03:52:36;;;;;;;6.22;5.37;;;;;;;6.59;60.29;101349.26;1606299;88;21083;-52
2021/12/26 03:55:05;;;;;;;6.65;4.72;;;;;;;6.61;60.09;101362.64;1631506;87;21101;-52
2021/12/26 03:57:33;;;;;;;5.97;5.35;;;;;;;6.65;59.85;101354.03;1603995;88;21099;-52
2021/12/26 04:00:00;;;;;;;5.08;4.60;;;;;;;6.65;59.53;101356.62;1677647;84;21087;-52
2021/12/26 04:02:26;;;;;;;6.03;4.65;;;;;;;6.66;59.47;101359.66;1618468;87;21634;-52
2021/12/26 04:04:53;;;;;;;5.62;5.10;;;;;;;6.68;59.21;101360.52;1614107;87;21084;-52
2021/12/26 04:07:19;;;;;;;5.20;4.70;;;;;;;6.66;58.92;101360.95;1676947;84;21034;-52
2021/12/26 04:09:46;;;;;;;5.25;4.75;;;;;;;6.64;58.91;101370.39;1663147;85;21054;-53
2021/12/26 04:12:14;;;;;;;5.70;4.53;;;;;;;6.63;58.71;101366.09;1661813;85;21034;-52
2021/12/26 04:14:41;;;;;;;6.50;5.03;;;;;;;6.59;58.61;101368.66;1677860;84;21035;-52
2021/12/26 04:17:08;;;;;;;5.05;4.55;;;;;;;6.57;58.66;101370.36;1708166;79;20998;-53
2021/12/26 04:19:34;;;;;;;4.47;3.92;;;;;;;6.56;58.67;101376.83;1761542;80;21072;-52
2021/12/26 04:22:02;;;;;;;5.62;4.53;;;;;;;6.54;58.79;101382.42;1768674;80;21041;-53
2021/12/26 04:24:31;;;;;;;5.22;4.20;;;;;;;6.55;58.69;101400.98;1766617;80;21590;-52
2021/12/26 04:26:57;;;;;;;4.30;3.83;;;;;;;6.53;58.58;101393.19;1768975;80;20962;-52
2021/12/26 04:29:24;;;;;;;4.75;4.25;;;;;;;6.50;58.53;101388.02;1734961;81;21482;-52
2021/12/26 04:31:51;;;;;;;4.58;3.98;;;;;;;6.45;58.59;101390.16;1721478;81;21494;-52
2021/12/26 04:34:18;;;;;;;4.12;3.58;;;;;;;6.42;58.59;101380.66;1732684;81;21513;-52
2021/12/26 04:36:45;;;;;;;5.62;4.28;;;;;;;6.40;58.47;101381.08;1706377;82;21509;-52
2021/12/26 04:39:12;;;;;;;4.85;4.35;;;;;;;6.37;58.64;101375.87;1705607;83;21481;-52
2021/12/26 04:41:39;;;;;;;4.65;4.17;;;;;;;6.36;58.33;101372.87;1707931;82;21625;-52
2021/12/26 04:44:26;;;;;;;4.90;4.05;;;;;;;6.32;58.28;101373.72;1733492;81;21041;-53
2021/12/26 04:47:09;;;;;;;4.35;3.95;;;;;;;6.29;58.37;101378.86;1651086;85;21034;-53
2021/12/26 04:49:36;;;;;;;4.62;3.90;;;;;;;6.26;58.48;101394.36;1666155;85;21111;-53
2021/12/26 04:52:04;;;;;;;4.65;4.03;;;;;;;6.29;58.56;101400.83;1650773;85;21110;-53
2021/12/26 04:54:32;;;;;;;3.92;3.60;;;;;;;6.38;58.20;101399.59;1659194;85;21145;-53
2021/12/26 04:56:59;;;;;;;4.40;3.98;;;;;;;6.40;57.95;101397.01;1659587;85;21030;-53
2021/12/26 04:59:26;;;;;;;4.47;3.80;;;;;;;6.38;57.94;101386.67;1657717;85;21130;-53
2021/12/26 05:01:54;;;;;;;4.08;3.67;;;;;;;6.36;57.76;101388.39;1651797;85;21681;-53
2021/12/26 05:04:21;;;;;;;4.47;3.75;;;;;;;6.32;57.69;101382.77;1642887;86;21143;-53
2021/12/26 05:06:48;;;;;;;4.03;3.55;;;;;;;6.30;57.85;101393.52;1656542;85;21499;-54
2021/12/26 05:09:15;;;;;;;5.05;4.35;;;;;;;6.30;58.07;101402.57;1659220;85;21553;-53
2021/12/26 05:11:43;;;;;;;3.95;3.55;;;;;;;6.32;57.87;101419.37;1660124;85;21064;-53
2021/12/26 05:14:10;;;;;;;4.72;3.98;;;;;;;6.29;57.96;101430.55;1659011;85;21039;-53
2021/12/26 05:16:36;;;;;;;7.17;4.65;;;;;;;6.30;58.02;101432.29;1648897;85;21081;-53
2021/12/26 05:19:04;;;;;;;5.10;4.60;;;;;;;6.31;57.93;101428.83;1660067;85;21093;-53
2021/12/26 05:21:31;;;;;;;4.37;3.98;;;;;;;6.31;57.82;101428.83;1659295;85;21052;-53
2021/12/26 05:23:57;;;;;;;4.37;3.98;;;;;;;6.32;57.67;101421.95;1657069;85;21069;-53
2021/12/26 05:26:24;;;;;;;4.08;3.67;;;;;;;6.30;57.57;101427.13;1647808;86;21167;-53
2021/12/26 05:28:52;;;;;;;5.08;4.00;;;;;;;6.30;57.70;101431.00;1622211;87;21105;-53
2021/12/26 05:31:19;;;;;;;6.62;3.87;;;;;;;6.26;57.52;101422.79;1638616;86;21505;-53
2021/12/26 05:33:45;;;;;;;5.25;3.70;;;;;;;6.23;57.48;101416.30;1643740;86;21075;-53
2021/12/26 05:36:13;;;;;;;4.67;3.77;;;;;;;6.23;57.37;101420.59;1646384;86;21628;-53
2021/12/26 05:38:40;;;;;;;4.92;4.33;;;;;;;6.23;57.45;101425.34;1659695;83;21581;-53
2021/12/26 05:41:09;;;;;;;4.92;3.60;;;;;;;6.22;57.56;101436.52;1716710;82;21090;-54
2021/12/26 05:43:37;;;;;;;9.40;4.45;;;;;;;6.22;57.48;101446.85;1721830;81;21570;-53
2021/12/26 05:46:04;;;;;;;4.45;4.05;;;;;;;6.22;57.49;101461.06;1728825;81;21531;-53
2021/12/26 05:48:33;;;;;;;4.60;3.92;;;;;;;6.23;57.35;101480.91;1735737;81;20991;-53
2021/12/26 05:51:01;;;;;;;4.40;4.00;;;;;;;6.22;57.24;101493.37;1724330;82;21031;-53
2021/12/26 05:53:30;;;;;;;4.42;4.03;;;;;;;6.22;57.25;101501.12;1640667;86;21067;-53
2021/12/26 05:55:57;;;;;;;6.25;4.42;;;;;;;6.23;57.21;101497.70;1675841;84;21104;-53
2021/12/26 05:58:24;;;;;;;4.80;4.20;;;;;;;6.22;57.10;101497.24;1665583;85;21025;-53
2021/12/26 06:00:51;;;;;;;4.85;4.00;;;;;;;6.17;57.23;101493.78;1664672;84;21141;-52
2021/12/26 06:03:18;;;;;;;5.22;4.70;;;;;;;6.16;57.30;101490.73;1670434;85;21620;-53
2021/12/26 06:05:44;;;;;;;5.20;4.30;;;;;;;6.17;57.29;101496.36;1672828;85;21054;-53
2021/12/26 06:08:11;;;;;;;4.95;4.45;;;;;;;6.17;57.50;101489.90;1673258;85;21120;-53
2021/12/26 06:10:39;;;;;;;4.85;3.83;;;;;;;6.17;57.38;101486.02;1670660;85;21566;-53
2021/12/26 06:13:06;;;;;;;4.25;3.87;;;;;;;6.17;57.55;101487.31;1680509;83;21537;-54
2021/12/26 06:15:34;;;;;;;4.78;4.10;;;;;;;6.18;57.69;101494.20;1689374;83;21513;-53
2021/12/26 06:18:02;;;;;;;4.42;4.03;;;;;;;6.19;57.60;101497.23;1676780;84;21074;-53
2021/12/26 06:20:47;;;;;;;4.83;4.33;;;;;;;6.19;57.60;101497.66;1677710;85;21042;-53
2021/12/26 06:23:32;;;;;;;5.62;4.92;;;;;;;6.17;57.62;101498.94;1673939;84;21014;-52
2021/12/26 06:26:21;;;;;;;5.35;4.83;;;;;;;6.14;57.59;101492.44;1670665;84;21097;-52
2021/12/26 06:28:49;;;;;;;4.78;3.62;;;;;;;6.09;57.73;101504.48;1627898;85;21071;-52
2021/12/26 06:31:34;;;;;;;4.25;3.85;;;;;;;6.06;57.84;101514.77;1655053;85;21082;-52
2021/12/26 06:34:19;;;;;;;4.50;3.60;;;;;;;6.06;58.04;101519.09;1647423;85;21677;-52
2021/12/26 06:37:05;;;;;;;4.58;3.90;;;;;;;6.10;58.14;101522.98;1655281;84;21089;-52
2021/12/26 06:39:50;;;;;;;6.12;4.30;;;;;;;6.11;57.92;101532.48;1653395;85;21171;-52
2021/12/26 06:42:40;;;;;;;5.53;4.40;;;;;;;6.10;57.94;101541.53;1677062;84;21041;-52
2021/12/26 06:45:24;;;;;;;5.95;4.33;;;;;;;6.10;57.79;101541.08;1678036;83;21062;-52
2021/12/26 06:48:08;;;;;;;5.45;4.12;;;;;;;6.06;57.65;101547.52;1703070;81;21024;-52
2021/12/26 06:50:36;;;;;;;5.35;4.30;;;;;;;6.00;57.79;101547.02;1698936;82;21079;-52
2021/12/26 06:53:04;;;;;;;7.40;4.45;;;;;;;5.98;57.62;101546.55;1653977;85;21041;-52
2021/12/26 06:55:31;;;;;;;4.65;4.17;;;;;;;5.93;57.73;101547.83;1690560;84;21498;-52
2021/12/26 06:57:57;;;;;;;5.90;4.72;;;;;;;5.92;57.67;101549.08;1677074;84;21587;-52
2021/12/26 07:00:26;;;;;;;44.60;29.32;;;;;;;5.88;57.90;101551.19;1665980;84;21626;-52
2021/12/26 07:02:53;;;;;;;51.33;32.50;;;;;;;5.89;58.00;101551.65;1651791;85;21053;-52
2021/12/26 07:05:20;;;;;;;33.20;23.45;;;;;;;5.89;57.83;101555.52;1648831;85;21517;-52
2021/12/26 07:07:50;;;;;;;12.68;9.63;;;;;;;5.87;57.76;101559.39;1648709;85;21492;-54
2021/12/26 07:10:18;;;;;;;19.20;10.75;;;;;;;5.84;57.82;101563.22;1659753;85;21578;-51
2021/12/26 07:12:44;;;;;;;13.80;7.78;;;;;;;5.82;57.84;101577.80;1671338;84;21512;-54
2021/12/26 07:15:13;;;;;;;8.13;5.40;;;;;;;5.79;57.86;101573.88;1605470;88;21174;-54
2021/12/26 07:17:42;;;;;;;7.78;5.75;;;;;;;5.79;57.99;101584.20;1610845;88;21111;-55
2021/12/26 07:20:11;;;;;;;13.05;8.43;;;;;;;5.81;58.20;101588.12;1618651;87;21067;-55
2021/12/26 07:22:56;;;;;;;10.85;7.90;;;;;;;5.81;58.11;101585.13;1593017;89;21063;-55
2021/12/26 07:25:22;;;;;;;15.70;9.28;;;;;;;5.83;58.10;101586.00;1586582;87;21030;-54
2021/12/26 07:27:49;;;;;;;13.95;9.48;;;;;;;5.84;57.97;101580.00;1608930;87;21604;-54
2021/12/26 07:30:34;;;;;;;12.20;7.92;;;;;;;5.84;57.82;101574.84;1630468;86;21132;-55
2021/12/26 07:33:01;;;;;;;14.20;8.70;;;;;;;5.81;57.68;101577.79;1646041;86;21129;-54
2021/12/26 07:35:27;;;;;;;8.05;6.03;;;;;;;5.77;57.90;101579.45;1631255;86;21093;-52
2021/12/26 07:37:56;;;;;;;9.13;5.83;;;;;;;5.75;57.87;101579.86;1627097;86;21025;-54
2021/12/26 07:40:22;;;;;;;10.15;6.92;;;;;;;5.74;57.99;101592.34;1622695;87;21540;-54
2021/12/26 07:42:49;;;;;;;9.60;6.22;;;;;;;5.71;58.09;101586.72;1621657;86;21101;-54
2021/12/26 07:45:29;;;;;;;9.13;6.12;;;;;;;5.71;58.21;101589.72;1638466;86;21113;-54
2021/12/26 07:47:58;;;;;;;9.38;6.15;;;;;;;5.72;58.33;101592.75;1642147;86;21049;-55
2021/12/26 07:50:26;;;;;;;8.45;6.45;;;;;;;5.72;58.33;101583.72;1647557;86;21101;-54
2021/12/26 07:53:11;;;;;;;13.75;8.05;;;;;;;5.71;58.53;101580.67;1689918;81;21018;-54
2021/12/26 07:55:56;;;;;;;9.43;6.75;;;;;;;5.68;58.58;101584.53;1726926;82;21152;-54
2021/12/26 08:02:08;;;;;;;8.15;6.10;;;;;;;5.62;58.61;101581.47;1726087;81;21036;-52
2021/12/26 08:04:53;;;;;;;13.45;8.15;;;;;;;5.58;58.50;101581.41;1713869;83;21078;-52
2021/12/26 08:07:33;;;;;;;12.70;8.63;;;;;;;5.52;58.74;101586.05;1716746;82;21023;-52
2021/12/26 08:10:01;;;;;;;12.40;8.15;;;;;;;5.49;58.95;101589.91;1706901;82;21538;-53
2021/12/26 08:12:31;;;;;;;13.75;9.18;;;;;;;5.49;59.02;101607.97;1744261;81;21030;-52
2021/12/26 08:14:59;;;;;;;17.30;11.00;;;;;;;5.50;59.12;101604.98;1769970;80;21013;-53
2021/12/26 08:17:25;;;;;;;16.85;11.18;;;;;;;5.52;59.18;101615.73;1762715;80;21053;-53
2021/12/26 08:19:52;;;;;;;17.10;11.85;;;;;;;5.52;59.04;101621.35;1758136;80;21109;-52
2021/12/26 08:22:18;;;;;;;18.37;11.85;;;;;;;5.49;59.19;101617.42;1728020;81;21046;-52
2021/12/26 08:24:45;;;;;;;14.65;10.23;;;;;;;5.49;59.24;101620.01;1745836;81;21037;-52
2021/12/26 08:27:11;;;;;;;9.55;7.30;;;;;;;5.49;59.26;101620.01;1698589;83;21014;-54
2021/12/26 08:29:38;;;;;;;16.32;11.15;;;;;;;5.47;59.26;101624.28;1702629;83;21081;-53
2021/12/26 08:32:07;;;;;;;14.05;9.20;;;;;;;5.22;60.02;101619.64;1727889;81;21031;-53
2021/12/26 08:34:33;;;;;;;10.50;8.38;;;;;;;5.38;59.71;101634.51;1740584;82;21056;-52
2021/12/26 08:37:03;;;;;;;11.25;8.48;;;;;;;5.42;59.52;101628.54;1735028;81;21061;-52
2021/12/26 08:39:34;;;;;;;12.45;7.80;;;;;;;5.41;59.55;101622.92;1768120;80;21061;-52
2021/12/26 08:42:01;;;;;;;15.95;9.68;;;;;;;5.38;59.65;101621.16;1714383;83;21126;-53
2021/12/26 08:44:27;;;;;;;12.65;8.83;;;;;;;5.37;59.74;101621.14;1671268;84;21101;-53
2021/12/26 08:46:53;;;;;;;19.60;11.80;;;;;;;5.37;59.82;101608.23;1643055;84;20994;-53
2021/12/26 08:49:20;;;;;;;17.62;11.73;;;;;;;5.37;59.87;101613.41;1674076;84;21088;-53
2021/12/26 08:51:47;;;;;;;16.55;9.75;;;;;;;5.37;60.03;101609.11;1691335;84;21036;-53
2021/12/26 08:54:14;;;;;;;12.43;7.67;;;;;;;5.38;59.98;101608.70;1688479;84;21066;-54
2021/12/26 08:56:41;;;;;;;14.87;8.08;;;;;;;5.40;59.96;101612.17;1698802;84;21067;-52
2021/12/26 08:59:07;;;;;;;11.57;7.97;;;;;;;5.37;59.93;101612.11;1691590;84;21025;-53
2021/12/26 09:01:35;;;;;;;14.93;9.63;;;;;;;5.33;60.03;101620.25;1665250;85;21091;-52
2021/12/26 09:04:02;;;;;;;13.43;7.95;;;;;;;5.34;60.14;101620.67;1664701;85;21056;-52
2021/12/26 09:06:28;;;;;;;14.55;9.23;;;;;;;5.35;60.03;101623.71;1664716;85;21113;-53
2021/12/26 09:15:46;;;;;;;16.85;10.28;;;;;;;5.31;60.21;101616.78;1654534;84;21018;-54
2021/12/26 09:18:13;;;;;;;17.23;9.73;;;;;;;5.32;60.24;101618.91;1664349;84;21034;-54
2021/12/26 09:20:40;;;;;;;18.37;10.58;;;;;;;5.31;60.19;101621.94;1692805;83;21014;-54
2021/12/26 09:23:06;;;;;;;15.72;10.72;;;;;;;5.31;60.10;101619.36;1720537;83;21041;-53
2021/12/26 09:25:33;;;;;;;22.00;13.43;;;;;;;5.28;60.26;101618.02;1709052;83;21499;-53
2021/12/26 09:28:00;;;;;;;15.03;9.85;;;;;;;5.30;60.36;101618.02;1679234;83;21605;-53
2021/12/26 09:30:28;;;;;;;19.32;12.50;;;;;;;5.30;60.42;101614.16;1661411;84;21163;-53
2021/12/26 09:32:55;;;;;;;27.07;15.85;;;;;;;5.31;60.41;101612.91;1666207;85;21039;-54
2021/12/26 09:35:21;;;;;;;18.42;12.15;;;;;;;5.34;60.46;101615.52;1653547;86;21037;-53
2021/12/26 09:50:50;;;;;;;17.23;11.90;;;;;;;5.26;60.61;101617.55;1766918;80;20991;-53
2021/12/26 09:53:17;;;;;;;18.20;12.95;;;;;;;5.29;60.66;101617.59;1741801;80;21043;-53
2021/12/26 09:55:45;;;;;;;18.02;12.33;;;;;;;5.32;60.54;101618.91;1712900;82;21100;-53
2021/12/26 09:58:11;;;;;;;17.87;11.65;;;;;;;5.30;60.63;101614.16;1699448;82;21068;-53
2021/12/26 10:00:42;;;;;;;27.52;14.63;;;;;;;5.35;60.57;101613.81;1714934;82;21038;-53
2021/12/26 10:03:33;;;;;;;23.65;12.05;;;;;;;5.34;60.41;101601.73;1754693;79;21006;-54
2021/12/26 10:06:13;;;;;;;27.60;15.35;;;;;;;5.33;60.19;101598.73;1707621;82;21111;-53
2021/12/26 10:08:56;;;;;;;22.48;13.40;;;;;;;5.29;60.20;101599.53;1733281;81;21018;-53
2021/12/26 10:11:32;;;;;;;20.70;11.30;;;;;;;5.25;60.38;101608.09;1648498;86;21093;-53
2021/12/26 10:14:04;;;;;;;26.55;12.98;;;;;;;5.24;60.17;101603.75;1586770;89;21092;-53
2021/12/26 10:16:39;;;;;;;20.02;11.78;;;;;;;5.22;60.33;101599.00;1583703;89;21589;-54
2021/12/26 10:19:06;;;;;;;19.92;11.53;;;;;;;5.23;60.41;101608.48;1629682;86;21064;-53
2021/12/26 10:21:40;;;;;;;17.23;10.85;;;;;;;5.21;60.34;101605.02;1629972;86;21071;-53
2021/12/26 10:24:25;;;;;;;18.87;11.03;;;;;;;5.21;60.39;101613.64;1636037;86;21061;-53
2021/12/26 10:27:00;;;;;;;19.15;11.43;;;;;;;5.22;60.34;101608.03;1637339;86;21525;-53
2021/12/26 10:29:34;;;;;;;33.02;16.40;;;;;;;5.19;60.33;101609.30;1626623;87;21035;-53
2021/12/26 10:40:28;;;;;;;23.83;12.23;;;;;;;3.09;69.84;101611.50;1784788;79;27165;-55
2021/12/26 10:43:01;;;;;;;20.10;11.95;;;;;;;4.57;63.51;101600.22;1705653;83;21560;-56
2021/12/26 10:45:30;;;;;;;21.73;11.90;;;;;;;4.83;62.21;101600.60;1700035;83;21518;-55
2021/12/26 10:48:05;;;;;;;36.08;17.85;;;;;;;4.87;61.95;101595.52;1702888;82;21103;-55
2021/12/26 10:50:36;;;;;;;18.98;11.03;;;;;;;4.90;61.77;101597.28;1659394;84;21091;-56
2021/12/26 10:53:07;;;;;;;14.03;9.90;;;;;;;4.90;61.70;101597.28;1654843;84;21138;-55
2021/12/26 10:55:47;;;;;;;27.15;14.65;;;;;;;4.89;61.65;101593.83;1663437;85;21048;-56
2021/12/26 10:58:17;;;;;;;12.35;7.72;;;;;;;4.91;61.66;101598.59;1668802;84;21123;-56
2021/12/26 11:00:46;;;;;;;13.00;8.13;;;;;;;4.93;61.59;101599.47;1646649;84;21075;-56
2021/12/26 11:03:22;;;;;;;11.03;7.62;;;;;;;4.93;61.58;101605.92;1664026;84;21016;-56
2021/12/26 11:06:02;;;;;;;11.03;7.75;;;;;;;4.94;61.61;101611.54;1637640;86;21134;-56
2021/12/26 11:08:38;;;;;;;18.30;10.45;;;;;;;4.99;61.73;101621.89;1545703;92;21145;-56
2021/12/26 11:11:20;;;;;;;13.58;8.40;;;;;;;5.03;61.57;101623.67;1597442;87;21066;-56
2021/12/26 11:13:47;;;;;;;18.25;11.30;;;;;;;5.08;61.69;101622.45;1574187;90;21071;-56
2021/12/26 11:16:15;;;;;;;16.02;10.88;;;;;;;5.12;61.34;101624.23;1573666;90;21142;-56
2021/12/26 11:18:42;;;;;;;15.80;10.35;;;;;;;5.13;61.24;101622.11;1576544;90;21063;-56
2021/12/26 11:21:14;;;;;;;12.23;9.55;;;;;;;5.15;61.22;101623.00;1571355;90;21626;-56
2021/12/26 11:23:43;;;;;;;15.93;10.93;;;;;;;5.16;61.21;101616.98;1572721;90;21104;-56
2021/12/26 11:26:18;;;;;;;17.75;11.15;;;;;;;5.17;61.21;101609.70;1575804;90;21088;-56
2021/12/26 11:28:48;;;;;;;16.75;10.40;;;;;;;5.20;61.21;101604.56;1573159;90;21149;-56
2021/12/26 11:31:22;;;;;;;22.67;15.45;;;;;;;5.22;60.89;101612.77;1575197;90;21092;-56
2021/12/26 11:33:54;;;;;;;21.90;12.65;;;;;;;5.23;60.88;101618.81;1541580;91;21148;-56
2021/12/26 11:36:18;;;;;;;18.95;10.88;;;;;;;5.25;60.82;101626.15;1548213;91;21196;-56
2021/12/26 11:38:46;;;;;;;18.05;10.88;;;;;;;5.26;60.77;101624.88;1537909;90;21163;-56
2021/12/26 11:41:55;;;;;;;29.18;16.82;;;;;;;5.26;60.63;101613.67;1569559;89;21111;-56
2021/12/26 11:45:11;;;;;;;18.40;10.40;;;;;;;5.28;60.63;101605.53;1533928;91;21617;-56
2021/12/26 11:48:39;;;;;;;15.08;9.55;;;;;;;5.29;60.58;101602.12;1529131;92;21699;-56
2021/12/26 11:51:50;;;;;;;16.25;9.13;;;;;;;5.29;60.51;101603.41;1568445;89;21111;-55
2021/12/26 11:54:40;;;;;;;18.85;9.63;;;;;;;5.26;60.61;101600.77;1540525;91;21164;-55
2021/12/26 11:57:43;;;;;;;14.68;9.30;;;;;;;5.29;60.53;101596.95;1559562;89;21099;-55
2021/12/26 12:00:26;;;;;;;19.85;9.95;;;;;;;5.32;60.34;101595.69;1567472;89;21570;-55
2021/12/26 12:02:58;;;;;;;14.47;9.43;;;;;;;5.33;60.34;101605.18;1583007;88;21074;-55
2021/12/26 12:05:40;;;;;;;13.60;8.65;;;;;;;5.33;60.28;101605.18;1683639;83;20998;-55
2021/12/26 12:08:09;;;;;;;9.35;7.35;;;;;;;5.33;60.32;101621.53;1718021;82;21065;-55
2021/12/26 12:10:43;;;;;;;12.40;7.87;;;;;;;5.33;60.22;101609.92;1708636;83;21045;-55
2021/12/26 12:13:26;;;;;;;11.60;8.55;;;;;;;5.32;60.10;101606.89;1703862;83;21079;-56
2021/12/26 12:16:08;;;;;;;10.28;7.67;;;;;;;5.30;60.05;101611.16;1700912;83;21111;-55
2021/12/26 12:18:47;;;;;;;10.72;8.05;;;;;;;5.28;59.95;101611.56;1703174;83;21044;-55
2021/12/26 12:21:33;;;;;;;9.35;6.97;;;;;;;5.27;60.01;101611.14;1707963;83;21489;-55
2021/12/26 12:24:09;;;;;;;11.05;8.23;;;;;;;5.28;60.13;101611.98;1706646;82;21494;-55
2021/12/26 12:27:00;;;;;;;7.75;6.50;;;;;;;5.31;60.23;101609.45;1716386;83;21053;-55
2021/12/26 12:29:42;;;;;;;8.35;6.97;;;;;;;5.31;59.91;101605.58;1701628;82;21037;-55
2021/12/26 12:32:14;;;;;;;7.08;6.03;;;;;;;5.28;59.86;101614.14;1751065;80;21038;-54
2021/12/26 12:35:04;;;;;;;7.22;6.28;;;;;;;5.27;59.79;101621.46;1757103;81;21019;-55
2021/12/26 12:37:44;;;;;;;8.38;6.28;;;;;;;5.25;59.95;101620.98;1651342;85;21056;-55
2021/12/26 12:40:33;;;;;;;7.58;5.72;;;;;;;5.26;59.89;101612.38;1649013;85;21678;-54
2021/12/26 12:43:10;;;;;;;13.32;8.93;;;;;;;5.24;59.65;101615.36;1615938;88;21058;-54
2021/12/26 12:46:04;;;;;;;16.07;11.05;;;;;;;5.22;59.67;101627.38;1616365;87;21089;-54
2021/12/26 12:48:40;;;;;;;11.55;9.45;;;;;;;5.22;59.81;101628.67;1606402;88;21058;-55
2021/12/26 12:51:22;;;;;;;12.58;9.35;;;;;;;5.21;59.82;101633.41;1611372;88;21081;-56
2021/12/26 12:54:01;;;;;;;12.25;9.73;;;;;;;5.22;59.92;101644.15;1614981;88;21120;-55
2021/12/26 12:56:33;;;;;;;14.90;11.75;;;;;;;5.23;60.10;101647.19;1546382;91;21077;-56
2021/12/26 12:59:22;;;;;;;11.18;8.45;;;;;;;5.26;60.07;101647.22;1547420;92;21687;-54
2021/12/26 13:02:10;;;;;;;10.25;7.15;;;;;;;5.24;60.08;101654.07;1543060;91;21129;-55
2021/12/26 13:04:46;;;;;;;10.18;8.23;;;;;;;5.25;59.96;101660.98;1519669;93;21159;-54
2021/12/26 13:07:22;;;;;;;10.53;8.08;;;;;;;5.24;60.08;101667.84;1539033;92;21063;-55
2021/12/26 13:09:54;;;;;;;9.08;7.85;;;;;;;5.24;60.06;101668.27;1535892;92;21178;-54
2021/12/26 13:12:21;;;;;;;10.88;7.92;;;;;;;5.24;60.09;101676.00;1525260;92;21051;-55
2021/12/26 13:14:58;;;;;;;12.88;9.78;;;;;;;5.23;60.09;101663.97;1484359;94;21234;-55
2021/12/26 13:17:32;;;;;;;13.00;9.25;;;;;;;5.24;60.11;101666.97;1467315;96;21700;-54
2021/12/26 13:20:03;;;;;;;13.28;9.23;;;;;;;5.25;59.95;101660.98;1467384;95;21102;-54
2021/12/26 13:22:41;;;;;;;12.75;8.68;;;;;;;5.24;59.90;101661.81;1472635;95;21185;-54
2021/12/26 13:25:09;;;;;;;12.05;8.63;;;;;;;5.22;59.89;101662.21;1429969;99;21176;-54
2021/12/26 13:27:35;;;;;;;14.65;8.98;;;;;;;5.20;59.91;101666.48;1431853;99;21181;-55
2021/12/26 13:30:03;;;;;;;14.75;10.45;;;;;;;5.21;59.87;101661.78;1440458;98;21131;-54
2021/12/26 13:32:37;;;;;;;13.32;9.73;;;;;;;5.17;59.85;101662.59;1448543;98;21577;-55
2021/12/26 13:35:05;;;;;;;16.95;10.15;;;;;;;5.15;60.05;101664.28;1347614;105;21184;-54
2021/12/26 13:37:32;;;;;;;11.90;8.45;;;;;;;5.14;60.18;101668.56;1345212;105;21802;-55
2021/12/26 13:40:00;;;;;;;7.97;6.65;;;;;;;5.16;60.22;101664.29;1356757;105;21733;-54
2021/12/26 13:42:27;;;;;;;9.15;6.90;;;;;;;5.17;60.31;101653.56;1343657;105;21659;-54
2021/12/26 13:44:53;;;;;;;9.20;6.80;;;;;;;5.18;60.29;101648.83;1346004;106;21111;-55
2021/12/26 13:47:20;;;;;;;7.35;6.17;;;;;;;5.18;60.51;101655.27;1376241;103;21150;-54
2021/12/26 13:49:47;;;;;;;13.25;6.92;;;;;;;5.22;60.57;101663.50;1379760;102;21225;-55
2021/12/26 13:52:18;;;;;;;7.87;5.90;;;;;;;5.25;60.72;101666.14;1366577;101;21183;-55
2021/12/26 13:54:50;;;;;;;8.80;5.15;;;;;;;5.31;60.75;101663.64;1414157;100;21650;-55
2021/12/26 13:57:20;;;;;;;8.50;4.83;;;;;;;5.38;60.63;101665.48;1425864;99;21173;-55
2021/12/26 13:59:52;;;;;;;7.25;5.15;;;;;;;5.42;60.44;101677.58;1419824;100;21108;-54
2021/12/26 14:02:26;;;;;;;7.05;4.17;;;;;;;5.47;60.22;101670.75;1413046;98;21116;-55
2021/12/26 14:05:05;;;;;;;7.12;4.10;;;;;;;5.51;59.95;101680.27;1459122;96;21690;-54
2021/12/26 14:07:43;;;;;;;6.05;4.10;;;;;;;5.54;59.67;101691.94;1450637;97;21215;-54
2021/12/26 14:10:15;;;;;;;5.40;4.15;;;;;;;5.57;59.38;101708.74;1477411;96;21141;-55
2021/12/26 14:12:46;;;;;;;6.97;4.80;;;;;;;5.60;59.22;101699.77;1438400;98;21178;-54
2021/12/26 14:15:28;;;;;;;5.47;3.95;;;;;;;5.63;59.03;101704.53;1420295;99;21157;-54
2021/12/26 14:18:06;;;;;;;7.80;3.65;;;;;;;5.64;59.04;101710.57;1438447;99;21187;-54
2021/12/26 14:20:59;;;;;;;6.30;3.75;;;;;;;5.64;58.81;101703.70;1450508;97;21121;-54
2021/12/26 14:23:40;;;;;;;4.17;3.20;;;;;;;5.66;58.94;101708.88;1465838;96;21180;-54
2021/12/26 14:26:15;;;;;;;6.08;3.30;;;;;;;5.69;58.84;101712.36;1463886;96;21588;-54
2021/12/26 14:28:58;;;;;;;5.30;3.58;;;;;;;5.72;58.57;101715.41;1477159;97;21077;-54
2021/12/26 14:31:36;;;;;;;4.75;3.98;;;;;;;5.71;58.32;101718.83;1483176;92;21139;-55
2021/12/26 14:34:16;;;;;;;5.62;4.20;;;;;;;5.66;58.49;101703.72;1542971;92;21062;-54
2021/12/26 14:36:51;;;;;;;5.65;3.65;;;;;;;5.66;58.56;101707.17;1525012;92;21128;-54
2021/12/26 14:39:32;;;;;;;5.25;4.28;;;;;;;5.66;58.65;101710.17;1532408;92;21143;-54
2021/12/26 14:42:09;;;;;;;7.25;5.20;;;;;;;5.68;58.70;101712.34;1551447;91;21675;-54
2021/12/26 14:44:46;;;;;;;5.92;4.05;;;;;;;5.68;58.83;101711.05;1569383;89;21730;-54
2021/12/26 14:47:27;;;;;;;7.42;5.37;;;;;;;5.70;58.88;101705.48;1532256;91;21083;-54
2021/12/26 14:50:16;;;;;;;10.13;6.55;;;;;;;5.72;58.91;101708.95;1523869;92;21626;-55
2021/12/26 14:52:55;;;;;;;6.35;4.97;;;;;;;5.74;58.94;101702.09;1525841;92;21781;-54
2021/12/26 14:55:24;;;;;;;7.15;4.70;;;;;;;5.74;59.00;101708.14;1530790;92;21075;-54
2021/12/26 14:57:50;;;;;;;7.92;5.45;;;;;;;5.76;59.03;101715.89;1522892;93;21604;-55
2021/12/26 15:00:21;;;;;;;12.78;5.72;;;;;;;5.78;59.10;101720.23;1531417;92;21062;-54
2021/12/26 15:02:53;;;;;;;5.83;4.75;;;;;;;5.86;59.08;101715.19;1532408;91;21068;-54
2021/12/26 15:05:29;;;;;;;6.60;4.37;;;;;;;5.90;59.13;101729.88;1573894;90;21217;-55
2021/12/26 15:08:00;;;;;;;5.33;4.15;;;;;;;5.93;59.13;101734.22;1561697;91;21558;-55
2021/12/26 15:10:35;;;;;;;8.75;3.98;;;;;;;5.95;59.02;101744.16;1547883;91;21594;-56
2021/12/26 15:13:02;;;;;;;5.95;4.80;;;;;;;5.95;58.69;101754.07;1537889;91;21065;-54
2021/12/26 15:15:37;;;;;;;6.67;5.10;;;;;;;5.94;58.68;101762.65;1543971;91;21501;-54
2021/12/26 15:18:11;;;;;;;6.95;5.05;;;;;;;5.92;58.55;101760.47;1554020;91;21067;-54
2021/12/26 15:20:47;;;;;;;5.70;5.10;;;;;;;5.89;58.67;101759.16;1555120;91;21097;-55
2021/12/26 15:23:20;;;;;;;7.58;5.50;;;;;;;5.88;58.85;101771.61;1547871;92;21129;-54
2021/12/26 15:26:01;;;;;;;10.30;6.58;;;;;;;5.89;58.84;101770.78;1542171;92;21109;-54
2021/12/26 15:28:39;;;;;;;9.13;6.72;;;;;;;5.90;58.74;101765.16;1494151;94;21064;-54